Latest Weather Observations for Wilcannia Airport

IDN60801

Issued at 10:32 am EST Tuesday 3 May 2016 (issued every 30 minutes, with the page automatically refreshed every 10 minutes)

About weather observations | Map of weather stations | Latest weather observations for NSW | Other Formats
Station Details ID: 046012 Name: WILCANNIA AERODROME AWS Lat: -31.52 Lon: 143.38 Height: 94.3 m
Data from the previous 72 hours. | See also: Recent months at Wilcannia Airport
Date/Time
EST
Temp
°C
App
Temp
°C
Dew
Point
Rel
Hum
%
Delta-T
°C
Wind Press
QNH
hPa
Press
MSL
hPa
Rain
since 9 am
mm
Dir
 
Spd
km/h
Gust
km/h
Spd
kts
Gust
kts
03/10:30am 21.5 15.2 3.7 31 8.6 NW 26 33 14 18 1014.3 1014.2 0.0
03/10:00am 20.3 15.0 4.8 36 7.6 NW 22 32 12 17 1014.3 1014.2 0.0
03/09:30am 18.9 14.1 5.7 42 6.5 NW 20 28 11 15 1014.2 1014.1 0.0
03/09:00am 17.4 12.8 5.4 45 5.8 NW 19 26 10 14 1014.2 1014.1 0.0
03/08:30am 16.0 12.7 6.4 53 4.7 NNW 13 17 7 9 1014.1 1014.0 0.0
03/08:00am 13.9 10.3 6.7 62 3.5 NNW 15 19 8 10 1014.1 1014.0 0.0
03/07:30am 11.8 8.1 6.5 70 2.5 NNW 15 17 8 9 1013.9 1013.8 0.0
03/07:00am 10.6 6.9 6.4 75 2.0 N 15 17 8 9 1013.8 1013.7 0.0
03/06:30am 10.5 7.2 6.6 77 1.8 NNW 13 15 7 8 1014.0 1013.9 0.0
03/06:00am 10.6 7.3 6.2 74 2.1 NNW 13 15 7 8 1014.1 1014.0 0.0
03/05:30am 11.0 7.4 6.9 76 2.0 NNW 15 17 8 9 1014.0 1013.9 0.0
03/05:00am 10.7 7.5 7.0 78 1.8 NNW 13 15 7 8 1013.8 1013.7 0.0
03/04:30am 10.6 7.5 7.3 80 1.6 NNW 13 13 7 7 1013.6 1013.5 0.0
03/04:00am 10.7 8.0 7.4 80 1.6 N 11 13 6 7 1013.6 1013.5 0.0
03/03:30am 11.2 8.2 7.9 80 1.6 NNW 13 15 7 8 1013.6 1013.5 0.0
03/03:00am 10.5 7.9 7.6 82 1.4 NNW 11 13 6 7 1013.5 1013.4 0.0
03/02:30am 11.0 8.3 7.3 78 1.8 NW 11 13 6 7 1013.8 1013.7 0.0
03/02:00am 11.9 9.2 7.4 74 2.2 NNE 11 11 6 6 1014.0 1013.9 0.0
03/01:30am 11.6 9.4 7.7 77 1.9 NNE 9 11 5 6 1014.1 1014.0 0.0
03/01:00am 10.9 10.4 8.0 82 1.4 CALM 0 0 0 0 1014.3 1014.2 0.0
03/12:30am 10.0 9.4 7.3 83 1.3 CALM 0 0 0 0 1014.6 1014.5 0.0
03/12:00am 10.8 9.2 8.2 84 1.3 S 6 6 3 3 1014.9 1014.8 0.0
 
Date/Time
EST
Temp
°C
App
Temp
°C
Dew
Point
Rel
Hum
%
Delta-T
°C
Wind Press
QNH
hPa
Press
MSL
hPa
Rain
since 9 am
mm
Dir
 
Spd
km/h
Gust
km/h
Spd
kts
Gust
kts
02/11:30pm 11.1 9.2 7.6 79 1.7 S 7 7 4 4 1015.1 1015.0 0.0
02/11:00pm 12.0 10.3 8.5 79 1.7 S 7 9 4 5 1015.2 1015.1 0.0
02/10:30pm 12.3 10.6 8.2 76 2.0 S 7 9 4 5 1015.3 1015.2 0.0
02/10:00pm 12.7 11.0 8.4 75 2.1 SSW 7 9 4 5 1015.3 1015.2 0.0
02/09:30pm 13.2 11.5 8.5 73 2.4 S 7 9 4 5 1015.2 1015.1 0.0
02/09:00pm 14.5 13.7 8.0 65 3.3 S 2 7 1 4 1015.1 1015.0 0.0
02/08:30pm 14.2 12.1 8.2 67 3.0 SSW 9 15 5 8 1015.0 1014.9 0.0
02/08:00pm 14.1 13.7 8.3 68 2.9 CALM 0 0 0 0 1014.7 1014.6 0.0
02/07:30pm 14.5 14.3 8.9 69 2.9 CALM 0 7 0 4 1014.6 1014.5 0.0
02/07:00pm 15.5 15.0 8.0 61 3.8 CALM 0 0 0 0 1014.3 1014.2 0.0
02/06:30pm 16.7 14.8 6.8 52 4.9 NW 6 6 3 3 1014.2 1014.1 0.0
02/06:00pm 19.0 16.7 5.8 42 6.5 WNW 7 11 4 6 1014.1 1014.0 0.0
02/05:30pm 21.3 18.5 5.2 35 8.0 WNW 9 13 5 7 1013.9 1013.8 0.0
02/05:00pm 22.2 19.3 4.7 32 8.7 W 9 13 5 7 1013.9 1013.8 0.0
02/04:30pm 22.6 19.7 4.6 31 8.9 NW 9 13 5 7 1014.0 1013.9 0.0
02/04:00pm 22.8 19.9 4.8 31 9.0 WNW 9 17 5 9 1014.0 1013.9 0.0
02/03:30pm 22.6 19.5 5.5 33 8.6 SW 11 19 6 10 1014.0 1013.9 0.0
02/03:00pm 22.7 20.0 5.6 33 8.6 WSW 9 13 5 7 1014.2 1014.1 0.0
02/02:30pm 22.1 19.3 5.1 33 8.5 SW 9 13 5 7 1014.1 1014.0 0.0
02/02:00pm 22.5 20.3 6.3 35 8.3 WSW 7 15 4 8 1014.3 1014.2 0.0
02/01:30pm 21.8 18.7 5.7 35 8.1 NE 11 20 6 11 1014.5 1014.4 0.0
02/01:00pm 21.7 19.0 5.6 35 8.1 NE 9 17 5 9 1015.2 1015.1 0.0
02/12:30pm 21.6 18.7 6.3 37 7.8 NE 11 19 6 10 1015.8 1015.7 0.0
02/12:00pm 21.0 16.8 5.8 37 7.6 NE 17 22 9 12 1016.3 1016.2 0.0
02/11:30am 20.0 16.2 7.4 44 6.5 NE 17 24 9 13 1016.7 1016.6 0.0
02/11:00am 19.8 16.2 8.2 47 6.0 NE 17 22 9 12 1017.0 1016.9 0.0
02/10:30am 18.8 15.2 8.5 51 5.4 NE 17 22 9 12 1017.1 1017.0 0.0
02/10:00am 17.1 13.4 9.3 60 4.1 NE 19 22 10 12 1016.9 1016.8 0.0
02/09:30am 16.7 13.3 9.1 61 3.9 NE 17 20 9 11 1017.1 1017.0 0.0
02/09:00am 14.9 11.7 8.6 66 3.2 NE 15 19 8 10 1017.4 1017.3 0.2
02/08:30am 13.5 11.5 8.6 72 2.5 ENE 9 13 5 7 1017.2 1017.1 0.2
02/08:00am 12.2 10.3 9.0 81 1.6 NE 9 11 5 6 1017.2 1017.1 0.2
02/07:30am 8.9 6.5 7.0 88 0.9 NE 9 11 5 6 1016.7 1016.6 0.2
02/07:00am 8.8 6.0 6.9 88 0.9 NE 11 13 6 7 1016.7 1016.6 0.2
02/06:30am 9.4 6.3 7.3 87 1.0 NE 13 13 7 7 1016.4 1016.3 0.2
02/06:00am 9.4 6.3 7.3 87 1.0 ENE 13 15 7 8 1016.1 1016.0 0.2
02/05:30am 9.5 6.4 7.3 86 1.0 ENE 13 13 7 7 1016.2 1016.1 0.2
02/05:00am 9.3 6.5 7.1 86 1.0 E 11 13 6 7 1016.0 1015.9 0.2
02/04:30am 10.1 7.5 7.9 86 1.1 ENE 11 15 6 8 1016.2 1016.1 0.2
02/04:00am 9.8 7.1 7.4 85 1.1 NE 11 13 6 7 1016.1 1016.0 0.2
02/03:30am 9.9 7.3 7.8 87 1.0 ENE 11 13 6 7 1016.3 1016.2 0.2
02/03:00am 9.5 7.2 7.6 88 0.9 E 9 11 5 6 1016.3 1016.2 0.2
02/02:30am 9.0 6.6 6.8 86 1.0 ENE 9 9 5 5 1016.6 1016.5 0.2
02/02:00am 9.4 7.0 7.0 85 1.1 E 9 9 5 5 1016.8 1016.7 0.2
02/01:30am 10.3 8.0 7.5 83 1.3 E 9 11 5 6 1016.9 1016.8 0.2
02/01:00am 10.7 8.1 7.6 81 1.5 ESE 11 13 6 7 1016.9 1016.8 0.2
02/12:30am 10.9 8.5 7.2 78 1.8 ESE 9 9 5 5 1017.1 1017.0 0.2
02/12:00am 12.3 9.3 7.8 74 2.2 SE 13 15 7 8 1017.5 1017.4 0.2
 
Date/Time
EST
Temp
°C
App
Temp
°C
Dew
Point
Rel
Hum
%
Delta-T
°C
Wind Press
QNH
hPa
Press
MSL
hPa
Rain
since 9 am
mm
Dir
 
Spd
km/h
Gust
km/h
Spd
kts
Gust
kts
01/11:30pm 12.6 9.6 7.9 73 2.3 SE 13 15 7 8 1017.7 1017.6 0.2
01/11:00pm 12.9 9.9 7.8 71 2.5 SSE 13 15 7 8 1017.9 1017.9 0.2
01/10:30pm 13.3 10.0 8.0 70 2.6 SSE 15 17 8 9 1018.1 1018.1 0.2
01/10:00pm 12.9 9.9 7.8 71 2.5 SE 13 13 7 7 1018.4 1018.4 0.2
01/09:30pm 13.6 10.7 8.2 70 2.7 SE 13 13 7 7 1018.4 1018.4 0.2
01/09:00pm 13.3 10.8 8.4 72 2.4 SE 11 13 6 7 1018.3 1018.3 0.2
01/08:30pm 14.5 11.6 8.0 65 3.3 S 13 13 7 7 1018.3 1018.3 0.2
01/08:00pm 14.6 11.8 8.5 67 3.1 SSE 13 13 7 7 1018.3 1018.3 0.2
01/07:30pm 14.5 12.1 8.7 68 2.9 S 11 13 6 7 1018.0 1018.0 0.2
01/07:00pm 15.5 13.1 8.5 63 3.6 S 11 11 6 6 1017.8 1017.7 0.2
01/06:30pm 16.1 14.1 8.6 61 3.8 SSE 9 11 5 6 1017.3 1017.2 0.2
01/06:00pm 17.8 15.4 7.0 49 5.4 SSE 9 13 5 7 1017.1 1017.0 0.2
01/05:30pm 19.9 17.3 5.9 40 7.0 S 9 13 5 7 1016.9 1016.8 0.2
01/05:00pm 21.0 18.3 5.4 36 7.7 SSE 9 13 5 7 1016.8 1016.7 0.2
01/04:30pm 21.5 18.8 5.4 35 8.0 SSW 9 15 5 8 1016.6 1016.5 0.2
01/04:00pm 21.7 18.5 5.2 34 8.2 SSW 11 20 6 11 1016.5 1016.4 0.2
01/03:30pm 21.7 18.1 5.2 34 8.2 S 13 22 7 12 1016.5 1016.4 0.2
01/03:00pm 22.2 18.7 5.6 34 8.3 SW 13 19 7 10 1016.3 1016.2 0.2
01/02:30pm 21.6 17.9 4.7 33 8.3 SW 13 22 7 12 1016.4 1016.3 0.2
01/02:00pm 21.4 17.0 4.9 34 8.1 SSW 17 24 9 13 1016.3 1016.2 0.2
01/01:30pm 21.4 18.7 7.3 40 7.3 SSW 11 24 6 13 1016.7 1016.6 0.2
01/01:00pm 21.2 16.3 5.1 35 8.0 SW 20 32 11 17 1016.8 1016.7 0.2
01/12:30pm 20.9 15.6 4.9 35 7.9 SSW 22 32 12 17 1017.4 1017.3 0.2
01/12:00pm 20.4 16.0 6.4 40 7.1 SW 19 28 10 15 1017.8 1017.7 0.0
01/11:30am 20.2 15.3 6.9 42 6.8 SSW 22 32 12 17 1018.2 1018.2 0.0
01/11:00am 19.8 13.3 6.5 42 6.7 SW 30 46 16 25 1018.4 1018.4 0.0
01/10:30am 19.8 14.6 8.8 49 5.8 SSW 26 35 14 19 1018.4 1018.4 0.0
01/10:00am 19.7 14.2 9.3 51 5.5 SW 28 37 15 20 1018.4 1018.4 0.0
01/09:30am 19.5 13.6 7.6 46 6.1 SW 28 41 15 22 1018.3 1018.1 0.0
01/09:00am 19.4 14.6 9.0 51 5.5 SW 24 33 13 18 1018.1 1017.9 0.4
01/08:30am 18.9 15.3 9.9 56 4.8 SW 19 26 10 14 1017.5 1017.2 0.4
01/08:00am 18.3 15.3 10.7 61 4.1 WSW 17 24 9 13 1017.0 1016.7 0.4
01/07:30am 17.8 14.4 10.7 63 3.8 SW 19 28 10 15 1016.5 1016.2 0.4
01/07:00am 18.3 14.2 11.6 65 3.7 SW 24 39 13 21 1016.0 1015.7 0.4
01/06:30am 18.9 16.8 15.2 79 2.2 W 20 32 11 17 1015.5 1015.2 0.4
01/06:00am 18.8 16.8 15.5 81 2.0 WNW 20 26 11 14 1014.6 1014.3 0.4
01/05:30am 18.8 17.0 15.5 81 2.0 NW 19 26 10 14 1013.9 1013.6 0.4
01/05:00am 19.1 17.1 15.6 80 2.1 NNW 20 26 11 14 1013.4 1013.1 0.4
01/04:30am 18.9 18.1 16.0 83 1.7 NNW 15 20 8 11 1013.1 1012.8 0.4
01/04:00am 18.6 18.5 16.0 85 1.6 N 11 15 6 8 1012.9 1012.6 0.4
01/03:30am 18.9 18.8 16.0 83 1.7 N 11 13 6 7 1012.6 1012.4 0.4
01/03:00am 19.7 18.9 16.2 80 2.1 N 15 19 8 10 1012.7 1012.5 0.4
01/02:30am 20.1 18.8 15.7 76 2.6 N 17 20 9 11 1012.6 1012.4 0.4
01/02:00am 20.9 19.1 15.9 73 3.0 N 20 30 11 16 1012.9 1012.6 0.4
01/01:30am 21.2 19.0 16.0 72 3.1 N 22 30 12 16 1013.0 1012.7 0.4
01/01:00am 21.4 19.4 16.4 73 3.0 N 22 30 12 16 1013.1 1012.8 0.4
01/12:30am 21.7 20.0 17.3 76 2.7 N 22 30 12 16 1013.3 1013.0 0.4
01/12:00am 21.9 19.7 17.9 78 2.5 NNW 26 35 14 19 1013.8 1013.5 0.4
 
Date/Time
EST
Temp
°C
App
Temp
°C
Dew
Point
Rel
Hum
%
Delta-T
°C
Wind Press
QNH
hPa
Press
MSL
hPa
Rain
since 9 am
mm
Dir
 
Spd
km/h
Gust
km/h
Spd
kts
Gust
kts
30/11:30pm 22.6 20.9 18.2 76 2.8 NNW 24 32 13 17 1014.1 1013.8 0.2
30/11:00pm 23.4 21.7 18.1 72 3.3 NNW 24 33 13 18 1013.6 1013.3 0.2
30/10:30pm 23.3 21.6 18.2 73 3.2 N 24 35 13 19 1013.2 1012.9 0.2
30/10:00pm 23.6 22.8 18.5 73 3.2 N 20 28 11 15 1013.3 1013.0 0.2
30/09:30pm 23.2 23.3 19.2 78 2.6 NNE 17 24 9 13 1013.4 1013.1 0.2
30/09:00pm 22.9 23.8 19.3 80 2.3 NNE 13 19 7 10 1013.5 1013.2 0.2
30/08:30pm 22.7 24.2 19.7 83 1.9 NNE 11 13 6 7 1013.5 1013.2 0.2
30/08:00pm 22.9 24.7 19.5 81 2.2 NNE 9 13 5 7 1013.4 1013.1 0.2
30/07:30pm 23.0 24.8 19.6 81 2.2 NNE 9 13 5 7 1013.2 1012.9 0.2
30/07:00pm 23.1 24.9 19.5 80 2.3 NE 9 11 5 6 1013.2 1012.9 0.2
30/06:30pm 23.4 24.7 19.3 78 2.6 NE 11 13 6 7 1013.0 1012.7 0.2
30/06:00pm 23.9 25.2 19.2 75 3.0 NE 11 15 6 8 1013.2 1012.9 0.2
30/05:30pm 24.5 25.7 19.1 72 3.5 NE 11 13 6 7 1013.4 1013.1 0.2
30/05:00pm 25.2 25.8 18.6 67 4.2 NE 13 17 7 9 1013.4 1013.1 0.2
30/04:30pm 25.1 25.8 18.8 68 4.0 NE 13 19 7 10 1013.5 1013.2 0.2
30/04:00pm 25.2 25.4 18.6 67 4.2 NE 15 20 8 11 1013.6 1013.3 0.2
30/03:30pm 25.4 25.7 18.8 67 4.2 NE 15 20 8 11 1013.7 1013.4 0.2
30/03:00pm 25.3 26.1 19.0 68 4.0 ENE 13 20 7 11 1013.7 1013.4 0.2
30/02:30pm 24.8 25.8 19.4 72 3.5 NE 13 17 7 9 1014.1 1013.8 0.2
30/02:00pm 24.6 25.3 18.8 70 3.7 NNE 13 19 7 10 1014.4 1014.1 0.2
30/01:30pm 23.9 24.8 18.3 71 3.5 NE 11 19 6 10 1014.8 1014.5 0.2
30/01:00pm 23.3 24.6 18.4 74 3.1 NE 9 17 5 9 1015.4 1015.1 0.2
30/12:30pm 22.6 23.0 18.2 76 2.8 NE 13 19 7 10 1015.8 1015.5 0.0
30/12:00pm 22.2 23.3 18.8 81 2.1 N 11 17 6 9 1016.7 1016.4 0.0
30/11:30am 20.3 21.7 17.7 85 1.6 NNW 7 11 4 6 1017.1 1016.8 0.0
30/11:00am 19.9 21.0 17.9 88 1.2 NNW 9 15 5 8 1017.4 1017.1 0.0

Other Formats:

Comma delimited format used in spreadsheet applications
http://www.bom.gov.au/fwo/IDN60801/IDN60801.95695.axf

JavaScript Object Notation format (JSON) in row-major order
http://www.bom.gov.au/fwo/IDN60801/IDN60801.95695.json